createdAt,value
2022-12-17T00:00:30.234Z,76.80
2022-12-17T00:02:20.720Z,76.60
2022-12-17T00:04:10.910Z,76.50
2022-12-17T00:06:01.053Z,76.60
2022-12-17T00:07:51.599Z,76.60
2022-12-17T00:09:44.625Z,76.60
2022-12-17T00:11:38.770Z,76.80
2022-12-17T00:13:39.992Z,76.70
2022-12-17T00:15:30.426Z,76.40
2022-12-17T00:17:21.015Z,76.90
2022-12-17T00:19:11.616Z,76.80
2022-12-17T00:21:02.230Z,76.80
2022-12-17T00:22:52.704Z,76.80
2022-12-17T00:24:43.510Z,76.70
2022-12-17T00:26:41.479Z,76.60
2022-12-17T00:28:32.303Z,76.80
2022-12-17T00:30:22.509Z,76.90
2022-12-17T00:32:34.420Z,76.50
2022-12-17T00:34:24.745Z,76.80
2022-12-17T00:36:17.182Z,76.80
2022-12-17T00:38:07.282Z,77.00
2022-12-17T00:39:59.407Z,76.70
2022-12-17T00:41:51.794Z,76.90
2022-12-17T00:43:42.012Z,77.00
2022-12-17T00:45:32.507Z,76.90
2022-12-17T00:47:23.006Z,76.70
2022-12-17T00:49:13.342Z,76.90
2022-12-17T00:51:03.699Z,76.80
2022-12-17T00:52:54.073Z,76.70
2022-12-17T00:54:46.380Z,76.50
2022-12-17T00:56:36.452Z,76.60
2022-12-17T00:58:26.750Z,76.40
2022-12-17T01:00:16.988Z,76.30
2022-12-17T01:02:07.442Z,76.50
2022-12-17T01:03:57.792Z,76.50
2022-12-17T01:05:48.458Z,76.40
2022-12-17T01:07:52.605Z,76.50
2022-12-17T01:09:43.041Z,76.30
2022-12-17T01:11:33.541Z,76.30
2022-12-17T01:13:23.496Z,76.20
2022-12-17T01:15:14.734Z,76.20
2022-12-17T01:17:05.226Z,76.20
2022-12-17T01:18:55.682Z,76.20
2022-12-17T01:20:47.049Z,76.30
2022-12-17T01:22:38.416Z,76.30
2022-12-17T01:24:30.304Z,76.50
2022-12-17T01:26:20.528Z,76.40
2022-12-17T01:28:11.065Z,76.50
2022-12-17T01:30:01.413Z,76.50
2022-12-17T01:31:51.819Z,76.60
2022-12-17T01:33:42.347Z,76.50
2022-12-17T01:35:32.700Z,76.40
2022-12-17T01:37:23.184Z,76.40
2022-12-17T01:39:13.603Z,76.30
2022-12-17T01:41:09.344Z,76.30
2022-12-17T01:43:02.732Z,76.20
2022-12-17T01:45:07.015Z,76.20
2022-12-17T01:47:04.517Z,76.20
2022-12-17T01:49:01.978Z,76.10
2022-12-17T01:50:59.935Z,76.40
2022-12-17T01:52:50.185Z,76.40
2022-12-17T01:54:42.212Z,76.30
2022-12-17T01:56:33.091Z,76.40
2022-12-17T01:58:23.474Z,76.20
2022-12-17T02:00:19.824Z,76.40
2022-12-17T02:02:10.282Z,76.40
2022-12-17T02:04:00.614Z,76.50
2022-12-17T02:06:11.258Z,76.60
2022-12-17T02:08:12.151Z,76.50
2022-12-17T02:10:13.617Z,76.50
2022-12-17T02:12:20.175Z,76.40
2022-12-17T02:14:39.920Z,76.40
2022-12-17T02:16:43.160Z,76.50
2022-12-17T02:18:40.936Z,76.30
2022-12-17T02:20:40.117Z,76.20
2022-12-17T02:23:04.970Z,76.30
2022-12-17T02:25:06.309Z,76.20
2022-12-17T02:27:06.162Z,76.20
2022-12-17T02:29:00.018Z,76.30
2022-12-17T02:30:51.318Z,76.10
2022-12-17T02:32:42.729Z,76.20
2022-12-17T02:34:33.570Z,76.30
2022-12-17T02:36:25.490Z,76.30
2022-12-17T02:38:16.038Z,76.30
2022-12-17T02:40:06.247Z,76.40
2022-12-17T02:42:29.632Z,76.20
2022-12-17T02:44:21.861Z,76.20
2022-12-17T02:46:13.908Z,76.10
2022-12-17T02:48:04.449Z,76.40
2022-12-17T02:49:54.796Z,76.50
2022-12-17T02:51:47.730Z,76.50
2022-12-17T02:53:39.138Z,76.70
2022-12-17T02:55:29.539Z,76.50
2022-12-17T02:57:19.674Z,76.40
2022-12-17T02:59:09.975Z,76.20
2022-12-17T03:01:01.018Z,76.30
2022-12-17T03:02:51.260Z,76.20
2022-12-17T03:04:41.497Z,76.30
2022-12-17T03:06:31.702Z,76.40
2022-12-17T03:08:22.995Z,76.50
2022-12-17T03:10:13.057Z,76.40
2022-12-17T03:12:06.224Z,76.40
2022-12-17T03:13:56.563Z,76.40
2022-12-17T03:15:47.007Z,76.60
2022-12-17T03:17:37.397Z,76.50
2022-12-17T03:19:28.838Z,76.30
2022-12-17T03:21:19.368Z,76.30
2022-12-17T03:23:09.688Z,76.30
2022-12-17T03:24:59.943Z,76.40
2022-12-17T03:26:50.665Z,76.30
2022-12-17T03:28:41.059Z,76.40
2022-12-17T03:30:35.749Z,76.50
2022-12-17T03:32:26.812Z,76.50
2022-12-17T03:34:17.234Z,76.40
2022-12-17T03:36:10.548Z,76.60
2022-12-17T03:38:00.723Z,76.60
2022-12-17T03:39:50.985Z,76.40
2022-12-17T03:41:41.386Z,76.20
2022-12-17T03:43:31.824Z,76.30
2022-12-17T03:45:22.228Z,76.30
2022-12-17T03:47:12.677Z,76.30
2022-12-17T03:49:03.149Z,76.30
2022-12-17T03:50:53.508Z,76.20
2022-12-17T03:52:43.979Z,76.30
2022-12-17T03:54:34.404Z,76.30
2022-12-17T03:56:25.048Z,76.30
2022-12-17T03:58:15.496Z,76.30
2022-12-17T04:00:05.796Z,76.30
2022-12-17T04:02:02.224Z,76.20
2022-12-17T04:03:52.416Z,76.20
2022-12-17T04:05:42.793Z,76.50
2022-12-17T04:07:33.254Z,76.30
2022-12-17T04:09:23.641Z,76.50
2022-12-17T04:11:14.142Z,76.40
2022-12-17T04:13:04.704Z,76.20
2022-12-17T04:14:55.019Z,76.10
2022-12-17T04:16:45.339Z,76.50
2022-12-17T04:18:35.721Z,76.40
2022-12-17T04:20:26.002Z,76.40
2022-12-17T04:22:16.429Z,76.30
2022-12-17T04:24:06.881Z,76.20
2022-12-17T04:25:57.151Z,76.10
2022-12-17T04:27:47.553Z,76.30
2022-12-17T04:29:37.786Z,76.20
2022-12-17T04:31:28.268Z,76.20
2022-12-17T04:33:18.641Z,76.30
2022-12-17T04:35:09.126Z,76.30
2022-12-17T04:36:59.631Z,76.40
2022-12-17T04:38:50.051Z,76.40
2022-12-17T04:40:40.367Z,75.90
2022-12-17T04:42:30.965Z,76.20
2022-12-17T04:44:21.458Z,76.00
2022-12-17T04:46:11.937Z,75.80
2022-12-17T04:48:02.270Z,76.10
2022-12-17T04:49:52.758Z,76.10
2022-12-17T04:51:43.270Z,76.20
2022-12-17T04:53:34.144Z,76.00
2022-12-17T04:55:24.563Z,75.80
2022-12-17T04:57:14.874Z,75.90
2022-12-17T04:59:05.310Z,75.80
2022-12-17T05:00:55.808Z,75.90
2022-12-17T05:02:46.484Z,75.90
2022-12-17T05:04:36.933Z,75.70
2022-12-17T05:06:27.314Z,75.80
2022-12-17T05:08:17.794Z,75.90
2022-12-17T05:10:08.181Z,75.70
2022-12-17T05:11:58.533Z,75.90
2022-12-17T05:13:48.923Z,76.00
2022-12-17T05:15:39.284Z,76.30
2022-12-17T05:17:29.614Z,76.00
2022-12-17T05:19:19.782Z,76.30
2022-12-17T05:21:10.119Z,76.20
2022-12-17T05:23:00.375Z,76.20
2022-12-17T05:24:50.574Z,75.80
2022-12-17T05:26:42.946Z,75.80
2022-12-17T05:28:33.255Z,76.20
2022-12-17T05:30:24.220Z,76.20
2022-12-17T05:32:14.701Z,75.90
2022-12-17T05:34:05.217Z,76.10
2022-12-17T05:35:55.559Z,75.90
2022-12-17T05:37:46.007Z,76.10
2022-12-17T05:39:36.429Z,76.00
2022-12-17T05:41:26.824Z,76.00
2022-12-17T05:43:23.034Z,75.80
2022-12-17T05:45:13.593Z,75.80
2022-12-17T05:47:04.023Z,75.70
2022-12-17T05:48:55.102Z,75.70
2022-12-17T05:50:45.503Z,75.70
2022-12-17T05:52:35.903Z,75.70
2022-12-17T05:54:26.754Z,75.60
2022-12-17T05:56:17.085Z,75.70
2022-12-17T05:58:07.460Z,75.60
2022-12-17T05:59:57.811Z,75.60
2022-12-17T06:01:48.096Z,75.70
2022-12-17T06:03:38.749Z,75.90
2022-12-17T06:05:29.572Z,75.90
2022-12-17T06:07:19.971Z,75.80
2022-12-17T06:09:10.512Z,75.80
2022-12-17T06:11:01.057Z,75.90
2022-12-17T06:13:08.298Z,75.70
2022-12-17T06:14:58.677Z,76.00
2022-12-17T06:16:49.124Z,76.00
2022-12-17T06:18:39.577Z,75.70
2022-12-17T06:20:29.988Z,75.90
2022-12-17T06:22:20.195Z,75.60
2022-12-17T06:24:10.442Z,75.80
2022-12-17T06:26:00.601Z,76.10
2022-12-17T06:27:50.925Z,75.90
2022-12-17T06:29:41.302Z,75.70
2022-12-17T06:31:31.753Z,75.70
2022-12-17T06:33:26.808Z,76.20
2022-12-17T06:35:17.298Z,76.00
2022-12-17T06:37:07.706Z,75.90
2022-12-17T06:38:58.304Z,75.80
2022-12-17T06:40:48.785Z,75.80
2022-12-17T06:42:39.197Z,75.70
2022-12-17T06:44:29.497Z,75.60
2022-12-17T06:46:39.767Z,75.70
2022-12-17T06:48:29.946Z,75.60
2022-12-17T06:50:20.161Z,75.50
2022-12-17T06:52:10.077Z,75.20
2022-12-17T06:54:01.189Z,75.50
2022-12-17T06:55:52.747Z,75.50
2022-12-17T06:57:47.442Z,75.50
2022-12-17T06:59:40.294Z,75.30
2022-12-17T07:01:30.815Z,75.60
2022-12-17T07:03:21.249Z,75.20
2022-12-17T07:05:11.733Z,75.30
2022-12-17T07:07:02.109Z,75.40
2022-12-17T07:08:52.566Z,75.50
2022-12-17T07:10:42.913Z,75.40
2022-12-17T07:12:33.398Z,75.60
2022-12-17T07:14:23.763Z,75.50
2022-12-17T07:16:14.193Z,75.50
2022-12-17T07:18:19.029Z,75.30
2022-12-17T07:20:09.346Z,75.20
2022-12-17T07:21:59.647Z,75.00
2022-12-17T07:23:49.964Z,75.30
2022-12-17T07:25:45.681Z,75.30
2022-12-17T07:27:36.322Z,75.20
2022-12-17T07:29:26.806Z,75.20
2022-12-17T07:31:17.463Z,74.80
2022-12-17T07:33:20.470Z,75.00
2022-12-17T07:35:11.024Z,74.80
2022-12-17T07:37:01.488Z,74.80
2022-12-17T07:38:51.798Z,74.90
2022-12-17T07:40:42.303Z,75.10
2022-12-17T07:42:32.682Z,75.00
2022-12-17T07:44:23.072Z,74.80
2022-12-17T07:46:13.484Z,75.00
2022-12-17T07:48:11.281Z,74.90
2022-12-17T07:50:01.880Z,74.80
2022-12-17T07:51:52.274Z,74.80
2022-12-17T07:53:42.704Z,74.80
2022-12-17T07:55:33.064Z,74.70
2022-12-17T07:57:23.329Z,74.60
2022-12-17T07:59:13.767Z,74.60
2022-12-17T08:01:04.161Z,74.60
2022-12-17T08:02:54.471Z,74.50
2022-12-17T08:04:44.674Z,74.50
2022-12-17T08:06:35.059Z,74.50
2022-12-17T08:08:26.993Z,74.50
2022-12-17T08:10:17.411Z,74.50
2022-12-17T08:12:10.722Z,74.40
2022-12-17T08:14:01.129Z,74.40
2022-12-17T08:15:53.878Z,74.10
2022-12-17T08:17:44.262Z,73.90
2022-12-17T08:19:34.499Z,74.20
2022-12-17T08:21:24.810Z,74.50
2022-12-17T08:23:22.870Z,74.40
2022-12-17T08:25:13.300Z,74.40
2022-12-17T08:27:03.793Z,74.10
2022-12-17T08:28:54.230Z,74.20
2022-12-17T08:30:44.642Z,74.20
2022-12-17T08:32:35.203Z,74.30
2022-12-17T08:34:25.551Z,74.30
2022-12-17T08:36:16.957Z,74.20
2022-12-17T08:38:07.386Z,74.10
2022-12-17T08:39:57.907Z,74.20
2022-12-17T08:41:53.993Z,74.10
2022-12-17T08:43:45.270Z,73.90
2022-12-17T08:45:35.787Z,73.90
2022-12-17T08:47:25.975Z,74.00
2022-12-17T08:49:16.274Z,74.10
2022-12-17T08:51:06.724Z,74.10
2022-12-17T08:52:57.203Z,74.00
2022-12-17T08:54:47.563Z,74.10
2022-12-17T08:56:38.010Z,74.00
2022-12-17T08:58:28.471Z,73.80
2022-12-17T09:00:19.159Z,73.80
2022-12-17T09:02:09.786Z,73.70
2022-12-17T09:04:00.952Z,73.90
2022-12-17T09:05:51.415Z,73.90
2022-12-17T09:07:41.847Z,73.90
2022-12-17T09:09:32.097Z,73.90
2022-12-17T09:11:22.345Z,73.60
2022-12-17T09:13:12.632Z,73.80
2022-12-17T09:15:03.076Z,73.80
2022-12-17T09:16:53.567Z,73.90
2022-12-17T09:18:43.843Z,73.70
2022-12-17T09:20:34.411Z,73.70
2022-12-17T09:22:24.819Z,73.70
2022-12-17T09:24:15.256Z,73.60
2022-12-17T09:26:15.056Z,73.80
2022-12-17T09:28:05.460Z,73.80
2022-12-17T09:29:56.744Z,73.90
2022-12-17T09:31:47.176Z,73.90
2022-12-17T09:33:37.942Z,74.00
2022-12-17T09:35:29.029Z,73.30
2022-12-17T09:37:33.192Z,73.90
2022-12-17T09:39:23.668Z,73.80
2022-12-17T09:41:14.049Z,73.70
2022-12-17T09:43:11.568Z,73.60
2022-12-17T09:45:06.500Z,73.70
2022-12-17T09:47:10.792Z,73.70
2022-12-17T09:49:20.404Z,73.60
2022-12-17T09:51:11.368Z,73.80
2022-12-17T09:53:02.459Z,73.60
2022-12-17T09:55:05.141Z,73.70
2022-12-17T09:56:57.272Z,73.80
2022-12-17T09:58:54.563Z,73.80
2022-12-17T10:00:47.514Z,73.80
2022-12-17T10:02:41.097Z,73.80
2022-12-17T10:04:36.001Z,73.80
2022-12-17T10:06:32.896Z,73.40
2022-12-17T10:08:24.865Z,73.70
2022-12-17T10:10:15.869Z,73.70
2022-12-17T10:12:06.315Z,73.60
2022-12-17T10:13:56.782Z,73.50
2022-12-17T10:15:47.280Z,73.60
2022-12-17T10:17:40.228Z,73.30
2022-12-17T10:19:38.441Z,73.40
2022-12-17T10:21:30.025Z,73.60
2022-12-17T10:23:20.353Z,73.90
2022-12-17T10:25:10.758Z,73.90
2022-12-17T10:27:06.809Z,73.80
2022-12-17T10:28:57.178Z,73.60
2022-12-17T10:30:49.249Z,73.60
2022-12-17T10:32:44.125Z,73.60
2022-12-17T10:34:38.079Z,73.60
2022-12-17T10:36:42.403Z,73.50
2022-12-17T10:38:44.378Z,73.40
2022-12-17T10:40:50.017Z,73.40
2022-12-17T10:42:56.135Z,73.60
2022-12-17T10:44:54.088Z,73.30
2022-12-17T10:46:50.564Z,73.40
2022-12-17T10:48:48.363Z,73.50
2022-12-17T10:50:41.815Z,73.50
2022-12-17T10:52:32.248Z,73.30
2022-12-17T10:54:49.142Z,73.50
2022-12-17T10:56:44.122Z,73.60
2022-12-17T10:58:35.518Z,73.50
2022-12-17T11:00:50.086Z,73.50
2022-12-17T11:02:46.782Z,73.30
2022-12-17T11:04:48.652Z,73.70
2022-12-17T11:06:45.443Z,73.50
2022-12-17T11:08:37.225Z,73.80
2022-12-17T11:10:36.948Z,73.80
2022-12-17T11:12:31.128Z,73.80
2022-12-17T11:14:24.358Z,73.80
2022-12-17T11:16:18.900Z,73.30
2022-12-17T11:18:11.764Z,73.70
2022-12-17T11:20:12.118Z,73.70
2022-12-17T11:22:11.183Z,73.50
2022-12-17T11:24:04.971Z,73.40
2022-12-17T11:26:11.658Z,73.50
2022-12-17T11:28:05.211Z,73.50
2022-12-17T11:29:55.535Z,73.50
2022-12-17T11:31:57.796Z,73.50
2022-12-17T11:33:56.423Z,73.50
2022-12-17T11:36:07.421Z,73.70
2022-12-17T11:38:12.192Z,73.80
2022-12-17T11:40:15.220Z,73.60
2022-12-17T11:42:20.906Z,73.80
2022-12-17T11:44:43.939Z,73.80
2022-12-17T11:46:42.076Z,73.70
2022-12-17T11:48:42.909Z,73.40
2022-12-17T11:50:45.597Z,73.60
2022-12-17T11:53:25.938Z,73.70
2022-12-17T11:56:05.293Z,73.80
2022-12-17T11:58:21.500Z,73.60
2022-12-17T12:00:33.856Z,73.60
2022-12-17T12:03:00.012Z,73.80
2022-12-17T12:05:14.452Z,73.50
2022-12-17T12:07:16.748Z,73.90
2022-12-17T12:09:14.168Z,73.60
2022-12-17T12:11:26.862Z,73.60
2022-12-17T12:13:36.890Z,73.40
2022-12-17T12:15:43.859Z,73.90
2022-12-17T12:17:37.005Z,73.70
2022-12-17T12:19:36.697Z,73.60
2022-12-17T12:21:44.472Z,73.70
2022-12-17T12:24:00.810Z,73.60
2022-12-17T12:26:00.385Z,73.60
2022-12-17T12:28:18.591Z,73.70
2022-12-17T12:30:23.673Z,73.40
2022-12-17T12:32:28.850Z,73.20
2022-12-17T12:34:27.488Z,73.50
2022-12-17T12:36:22.026Z,73.60
2022-12-17T12:38:13.222Z,73.20
2022-12-17T12:40:16.913Z,73.40
2022-12-17T12:42:22.195Z,73.50
2022-12-17T12:44:18.234Z,73.70
2022-12-17T12:46:11.729Z,73.90
2022-12-17T12:48:22.546Z,73.70
2022-12-17T12:50:38.242Z,73.70
2022-12-17T12:52:31.147Z,73.60
2022-12-17T12:54:54.839Z,73.50
2022-12-17T12:56:54.970Z,73.50
2022-12-17T12:58:49.170Z,73.70
2022-12-17T13:00:44.388Z,73.70
2022-12-17T13:02:49.913Z,73.40
2022-12-17T13:04:46.870Z,73.60
2022-12-17T13:06:54.154Z,73.30
2022-12-17T13:08:26.010Z,73.60
2022-12-17T13:10:00.358Z,73.20
2022-12-17T13:11:38.735Z,73.80
2022-12-17T13:13:22.691Z,73.60
2022-12-17T13:14:59.254Z,73.70
2022-12-17T13:16:41.038Z,73.70
2022-12-17T13:18:40.588Z,73.50
2022-12-17T13:20:29.710Z,73.70
2022-12-17T13:22:18.819Z,73.50
2022-12-17T13:23:56.827Z,73.60
2022-12-17T13:25:33.004Z,73.50
2022-12-17T13:27:05.176Z,73.30
2022-12-17T13:28:38.416Z,73.60
2022-12-17T13:30:24.397Z,73.40
2022-12-17T13:32:12.939Z,73.40
2022-12-17T13:33:52.989Z,73.50
2022-12-17T13:35:24.658Z,73.40
2022-12-17T13:37:04.840Z,73.10
2022-12-17T13:39:03.773Z,73.30
2022-12-17T13:40:38.153Z,73.10
2022-12-17T13:42:29.981Z,73.00
2022-12-17T13:44:16.386Z,73.20
2022-12-17T13:45:50.157Z,73.30
2022-12-17T13:47:24.827Z,73.10
2022-12-17T13:48:59.245Z,73.20
2022-12-17T13:50:34.372Z,73.10
2022-12-17T13:52:20.462Z,73.10
2022-12-17T13:53:57.904Z,73.10
2022-12-17T13:55:30.542Z,73.30
2022-12-17T13:57:18.835Z,73.10
2022-12-17T13:58:52.390Z,73.10
2022-12-17T14:00:29.757Z,72.90
2022-12-17T14:02:06.047Z,73.10
2022-12-17T14:05:40.525Z,72.90
2022-12-17T14:07:12.234Z,73.10
2022-12-17T14:08:45.696Z,72.50
2022-12-17T14:10:19.040Z,72.90
2022-12-17T14:12:10.055Z,72.90
2022-12-17T14:13:43.470Z,73.00
2022-12-17T14:15:26.666Z,72.90
2022-12-17T14:16:59.068Z,72.70
2022-12-17T14:18:30.894Z,72.90
2022-12-17T14:20:11.248Z,72.90
2022-12-17T14:21:43.099Z,72.90
2022-12-17T14:23:27.856Z,72.70
2022-12-17T14:25:00.332Z,72.90
2022-12-17T14:26:31.946Z,72.90
2022-12-17T14:28:07.221Z,72.60
2022-12-17T14:29:46.640Z,72.90
2022-12-17T14:31:27.483Z,73.40
2022-12-17T14:33:00.179Z,74.20
2022-12-17T14:34:42.674Z,73.60
2022-12-17T14:36:23.521Z,73.10
2022-12-17T14:37:55.623Z,72.80
2022-12-17T14:39:31.276Z,72.80
2022-12-17T14:41:34.195Z,72.60
2022-12-17T14:43:06.764Z,72.50
2022-12-17T14:44:52.819Z,72.50
2022-12-17T14:46:25.297Z,72.30
2022-12-17T14:47:59.773Z,72.50
2022-12-17T14:49:31.468Z,72.00
2022-12-17T14:51:03.258Z,72.30
2022-12-17T14:52:44.825Z,72.50
2022-12-17T14:54:25.948Z,72.40
2022-12-17T14:55:58.821Z,72.40
2022-12-17T14:57:30.471Z,72.50
2022-12-17T14:59:02.444Z,72.50
2022-12-17T15:00:37.126Z,72.60
2022-12-17T15:02:30.769Z,72.10
2022-12-17T15:04:03.050Z,72.40
2022-12-17T15:05:35.469Z,72.60
2022-12-17T15:07:17.597Z,72.30
2022-12-17T15:08:51.183Z,72.40
2022-12-17T15:10:22.932Z,72.20
2022-12-17T15:11:54.580Z,72.30
2022-12-17T15:13:26.224Z,72.50
2022-12-17T15:14:57.893Z,72.50
2022-12-17T15:16:30.237Z,72.50
2022-12-17T15:18:01.953Z,72.10
2022-12-17T15:19:33.609Z,72.10
2022-12-17T15:21:05.801Z,72.20
2022-12-17T15:22:38.024Z,72.20
2022-12-17T15:24:14.113Z,72.40
2022-12-17T15:25:47.792Z,72.20
2022-12-17T15:27:19.645Z,72.40
2022-12-17T15:28:51.380Z,72.40
2022-12-17T15:30:23.227Z,72.30
2022-12-17T15:31:54.891Z,72.40
2022-12-17T15:33:26.597Z,72.30
2022-12-17T15:34:58.197Z,72.30
2022-12-17T15:36:31.933Z,72.30
2022-12-17T15:38:04.456Z,72.50
2022-12-17T15:39:36.139Z,72.30
2022-12-17T15:41:26.260Z,72.20
2022-12-17T15:43:13.345Z,72.20
2022-12-17T15:44:45.065Z,72.20
2022-12-17T15:46:17.080Z,72.20
2022-12-17T15:47:48.942Z,72.20
2022-12-17T15:49:21.110Z,72.20
2022-12-17T15:50:52.746Z,72.20
2022-12-17T15:52:24.567Z,72.20
2022-12-17T15:53:56.193Z,72.00
2022-12-17T15:55:28.007Z,72.10
2022-12-17T15:56:59.653Z,71.90
2022-12-17T15:58:31.330Z,72.00
2022-12-17T16:00:03.822Z,72.10
2022-12-17T16:01:37.109Z,72.10
2022-12-17T16:03:08.872Z,71.80
2022-12-17T16:04:40.992Z,72.10
2022-12-17T16:06:13.185Z,72.30
2022-12-17T16:07:44.913Z,72.20
2022-12-17T16:09:16.536Z,72.10
2022-12-17T16:10:48.130Z,72.00
2022-12-17T16:12:19.765Z,72.00
2022-12-17T16:13:55.702Z,72.00
2022-12-17T16:15:27.463Z,72.10
2022-12-17T16:16:59.262Z,72.00
2022-12-17T16:18:31.313Z,71.90
2022-12-17T16:20:06.690Z,71.90
2022-12-17T16:21:43.412Z,71.90
2022-12-17T16:23:19.247Z,71.90
2022-12-17T16:24:52.472Z,71.70
2022-12-17T16:26:24.411Z,71.70
2022-12-17T16:27:56.028Z,71.60
2022-12-17T16:29:27.667Z,71.70
2022-12-17T16:31:08.019Z,71.60
2022-12-17T16:32:39.797Z,71.60
2022-12-17T16:34:13.122Z,71.80
2022-12-17T16:35:51.495Z,71.70
2022-12-17T16:37:23.147Z,71.60
2022-12-17T16:38:55.093Z,71.40
2022-12-17T16:40:26.909Z,71.50
2022-12-17T16:41:58.549Z,71.40
2022-12-17T16:43:33.788Z,71.40
2022-12-17T16:45:06.153Z,71.40
2022-12-17T16:46:40.047Z,71.30
2022-12-17T16:48:11.819Z,71.10
2022-12-17T16:49:43.534Z,71.20
2022-12-17T16:51:19.036Z,71.20
2022-12-17T16:52:55.601Z,71.20
2022-12-17T16:54:30.608Z,71.10
2022-12-17T16:56:02.210Z,71.20
2022-12-17T16:57:33.890Z,71.00
2022-12-17T16:59:08.073Z,71.20
2022-12-17T17:00:39.790Z,71.20
2022-12-17T17:02:15.853Z,71.10
2022-12-17T17:03:48.264Z,71.20
2022-12-17T17:05:20.058Z,71.00
2022-12-17T17:06:55.486Z,70.90
2022-12-17T17:08:27.098Z,71.00
2022-12-17T17:09:58.798Z,71.00
2022-12-17T17:11:30.532Z,70.80
2022-12-17T17:13:02.443Z,70.80
2022-12-17T17:14:34.091Z,70.70
2022-12-17T17:16:07.391Z,70.50
2022-12-17T17:17:55.406Z,70.50
2022-12-17T17:19:27.882Z,70.60
2022-12-17T17:21:24.405Z,70.50
2022-12-17T17:22:56.107Z,70.40
2022-12-17T17:24:29.480Z,70.20
2022-12-17T17:26:01.970Z,70.20
2022-12-17T17:27:33.635Z,70.30
2022-12-17T17:29:06.584Z,70.30
2022-12-17T17:30:38.327Z,70.20
2022-12-17T17:32:11.395Z,70.10
2022-12-17T17:33:48.549Z,70.00
2022-12-17T17:35:20.276Z,70.00
2022-12-17T17:36:51.897Z,70.00
2022-12-17T17:38:23.527Z,70.00
2022-12-17T17:39:55.140Z,70.10
2022-12-17T17:41:28.907Z,70.00
2022-12-17T17:43:00.524Z,69.90
2022-12-17T17:44:32.540Z,69.90
2022-12-17T17:46:04.914Z,69.90
2022-12-17T17:47:36.551Z,69.80
2022-12-17T17:49:09.236Z,69.80
2022-12-17T17:50:40.974Z,69.60
2022-12-17T17:52:12.675Z,69.50
2022-12-17T17:53:46.646Z,69.50
2022-12-17T17:55:18.277Z,69.50
2022-12-17T17:56:49.902Z,69.50
2022-12-17T17:58:21.652Z,69.40
2022-12-17T17:59:53.332Z,69.30
2022-12-17T18:01:35.620Z,69.40
2022-12-17T18:03:07.506Z,69.20
2022-12-17T18:04:39.947Z,69.20
2022-12-17T18:06:13.517Z,69.20
2022-12-17T18:07:45.172Z,69.20
2022-12-17T18:09:16.829Z,69.00
2022-12-17T18:11:01.531Z,68.90
2022-12-17T18:12:52.195Z,68.90
2022-12-17T18:14:23.838Z,69.00
2022-12-17T18:16:01.935Z,68.80
2022-12-17T18:17:34.598Z,68.80
2022-12-17T18:19:18.790Z,68.80
2022-12-17T18:21:06.015Z,68.80
2022-12-17T18:22:37.881Z,68.70
2022-12-17T18:24:21.275Z,68.60
2022-12-17T18:25:53.378Z,68.50
2022-12-17T18:27:25.034Z,68.50
2022-12-17T18:28:58.506Z,68.40
2022-12-17T18:30:30.461Z,68.30
2022-12-17T18:32:02.145Z,68.30
2022-12-17T18:33:35.100Z,68.20
2022-12-17T18:35:07.372Z,68.20
2022-12-17T18:36:41.478Z,68.10
2022-12-17T18:38:13.164Z,68.10
2022-12-17T18:39:44.824Z,68.00
2022-12-17T18:41:36.494Z,67.80
2022-12-17T18:43:24.566Z,67.90
2022-12-17T18:44:56.225Z,67.70
2022-12-17T18:46:29.157Z,67.70
2022-12-17T18:48:00.918Z,67.70
2022-12-17T18:49:32.650Z,67.60
2022-12-17T18:51:05.656Z,67.70
2022-12-17T18:52:37.505Z,67.60
2022-12-17T18:54:16.234Z,67.50
2022-12-17T18:55:47.835Z,67.50
2022-12-17T18:57:19.519Z,67.60
2022-12-17T18:58:53.523Z,67.40
2022-12-17T19:00:25.198Z,67.30
2022-12-17T19:01:57.593Z,67.20
2022-12-17T19:03:29.287Z,67.20
2022-12-17T19:05:00.967Z,67.20
2022-12-17T19:06:34.377Z,67.10
2022-12-17T19:08:06.021Z,67.30
2022-12-17T19:09:39.538Z,67.10
2022-12-17T19:11:12.808Z,67.10
2022-12-17T19:12:44.782Z,67.10
2022-12-17T19:14:17.808Z,67.00
2022-12-17T19:15:49.471Z,67.00
2022-12-17T19:17:21.160Z,66.80
2022-12-17T19:18:53.841Z,67.00
2022-12-17T19:20:25.484Z,66.70
2022-12-17T19:21:59.514Z,66.80
2022-12-17T19:23:33.644Z,66.80
2022-12-17T19:25:05.710Z,66.70
2022-12-17T19:26:37.652Z,66.60
2022-12-17T19:28:09.612Z,66.60
2022-12-17T19:29:46.213Z,66.80
2022-12-17T19:31:23.162Z,66.70
2022-12-17T19:32:55.610Z,66.70
2022-12-17T19:34:27.362Z,66.80
2022-12-17T19:36:04.277Z,66.70
2022-12-17T19:37:36.049Z,66.50
2022-12-17T19:39:11.193Z,66.50
2022-12-17T19:40:42.786Z,66.40
2022-12-17T19:42:24.467Z,66.50
2022-12-17T19:44:05.113Z,66.40
2022-12-17T19:45:36.872Z,66.50
2022-12-17T19:47:08.580Z,66.40
2022-12-17T19:48:46.488Z,66.40
2022-12-17T19:50:19.962Z,66.50
2022-12-17T19:51:51.764Z,67.00
2022-12-17T19:53:26.870Z,66.80
2022-12-17T19:54:58.530Z,66.90
2022-12-17T19:56:32.083Z,66.90
2022-12-17T19:58:03.869Z,66.80
2022-12-17T19:59:35.522Z,66.80
2022-12-17T20:01:16.298Z,66.70
2022-12-17T20:02:48.222Z,66.50
2022-12-17T20:04:20.091Z,66.60
2022-12-17T20:05:51.748Z,66.60
2022-12-17T20:07:23.498Z,66.60
2022-12-17T20:08:55.708Z,66.70
2022-12-17T20:10:27.378Z,66.50
2022-12-17T20:11:59.037Z,66.60
2022-12-17T20:13:30.769Z,66.70
2022-12-17T20:15:02.495Z,66.70
2022-12-17T20:16:42.838Z,66.60
2022-12-17T20:18:14.633Z,67.00
2022-12-17T20:19:46.233Z,66.70
2022-12-17T20:21:18.312Z,66.70
2022-12-17T20:22:49.981Z,66.80
2022-12-17T20:24:27.176Z,66.70
2022-12-17T20:26:06.251Z,66.70
2022-12-17T20:27:39.187Z,67.00
2022-12-17T20:29:11.078Z,67.00
2022-12-17T20:30:42.807Z,67.00
2022-12-17T20:32:19.121Z,67.10
2022-12-17T20:33:50.862Z,67.00
2022-12-17T20:35:22.486Z,67.00
2022-12-17T20:36:54.436Z,67.00
2022-12-17T20:38:26.074Z,67.00
2022-12-17T20:39:57.753Z,67.00
2022-12-17T20:41:30.842Z,66.80
2022-12-17T20:43:03.670Z,67.00
2022-12-17T20:44:35.357Z,67.00
2022-12-17T20:46:09.369Z,67.00
2022-12-17T20:47:41.161Z,67.00
2022-12-17T20:49:14.547Z,67.00
2022-12-17T20:50:46.203Z,67.00
2022-12-17T20:52:17.867Z,67.00
2022-12-17T20:53:50.862Z,67.00
2022-12-17T20:55:26.438Z,67.00
2022-12-17T20:57:01.232Z,67.00
2022-12-17T20:58:33.308Z,67.00
2022-12-17T21:00:05.573Z,67.00
2022-12-17T21:01:37.434Z,67.20
2022-12-17T21:03:09.428Z,67.20
2022-12-17T21:04:41.055Z,67.20
2022-12-17T21:06:15.463Z,67.00
2022-12-17T21:07:47.127Z,67.00
2022-12-17T21:09:20.012Z,66.80
2022-12-17T21:10:56.320Z,67.00
2022-12-17T21:12:49.240Z,67.10
2022-12-17T21:14:20.932Z,67.30
2022-12-17T21:15:52.546Z,67.20
2022-12-17T21:17:24.225Z,67.00
2022-12-17T21:18:57.993Z,67.20
2022-12-17T21:20:29.646Z,67.30
2022-12-17T21:22:01.727Z,67.30
2022-12-17T21:23:34.875Z,67.40
2022-12-17T21:25:07.539Z,67.40
2022-12-17T21:26:41.555Z,67.20
2022-12-17T21:28:13.436Z,67.20
2022-12-17T21:29:45.045Z,67.00
2022-12-17T21:31:30.391Z,67.40
2022-12-17T21:33:02.109Z,67.00
2022-12-17T21:34:35.206Z,67.30
2022-12-17T21:36:07.867Z,67.20
2022-12-17T21:37:39.830Z,67.20
2022-12-17T21:39:14.742Z,67.30
2022-12-17T21:40:46.479Z,67.20
2022-12-17T21:42:36.619Z,67.20
2022-12-17T21:44:11.196Z,67.00
2022-12-17T21:45:43.557Z,67.20
2022-12-17T21:47:15.159Z,67.00
2022-12-17T21:48:47.124Z,67.20
2022-12-17T21:50:19.129Z,67.20
2022-12-17T21:51:50.801Z,67.20
2022-12-17T21:53:23.001Z,67.10
2022-12-17T21:54:54.942Z,67.20
2022-12-17T21:56:27.360Z,67.20
2022-12-17T21:57:59.221Z,67.20
2022-12-17T21:59:30.982Z,67.30
2022-12-17T22:01:14.947Z,67.10
2022-12-17T22:02:51.398Z,67.20
2022-12-17T22:04:24.135Z,67.00
2022-12-17T22:05:55.884Z,67.20
2022-12-17T22:07:31.186Z,67.20
2022-12-17T22:09:12.539Z,67.30
2022-12-17T22:10:59.940Z,67.20
2022-12-17T22:13:10.089Z,67.20
2022-12-17T22:14:41.762Z,67.30
2022-12-17T22:16:13.762Z,67.10
2022-12-17T22:17:45.536Z,67.20
2022-12-17T22:19:22.971Z,67.20
2022-12-17T22:20:59.699Z,67.10
2022-12-17T22:22:31.484Z,67.20
2022-12-17T22:24:04.290Z,67.20
2022-12-17T22:25:38.925Z,67.20
2022-12-17T22:27:10.553Z,67.00
2022-12-17T22:28:43.888Z,67.40
2022-12-17T22:30:36.301Z,67.00
2022-12-17T22:32:28.837Z,67.20
2022-12-17T22:34:35.757Z,67.20
2022-12-17T22:37:29.114Z,67.20
2022-12-17T22:40:48.349Z,67.20